Philadelphia — WDJ3655 — position and weather

sailwx.info

Track history (hours):
 
Tides and Currents Weather Stations Pressure Air Temp Water Temp Dewpoint Dewpoint Depression Visibility Wind Speed Wind Dir Waves Ship Positions

Philadelphia

Owner: Vane Line Bunkering, Inc., Philadelphia, PA. More information available from US FCC via Universal Licensing System and Coast Guard Vessel Documentation Center.

Last reported at 2017-Dec-11 17:00 UTC. Time now 2017-Dec-14 10:16 UTC.
Position N 40°40' W 074°05'.

Length 30 m; draft 5.5 m.

Type: Towing. MMSI: 369230000.

Date/timePositionNaut miles runAvg speedWind from/ knotsBaromVisibWave heightAir tempDewpointWater temp
2017-Dec-11 17:00N 40°40' W 074°05'0 0.0
2017-Dec-11 16:31N 40°40' W 074°05'0 0.0
2017-Dec-11 16:01N 40°40' W 074°05'0 0.0
2017-Dec-11 15:30N 40°40' W 074°05'0 0.0
2017-Dec-11 15:01N 40°40' W 074°05'0 0.0
2017-Dec-11 14:31N 40°40' W 074°05'0 0.0
2017-Dec-11 14:01N 40°40' W 074°05'0 0.0
2017-Dec-11 13:31N 40°40' W 074°05'0 0.0
2017-Dec-11 13:01N 40°40' W 074°05'0 0.0
2017-Dec-11 12:31N 40°40' W 074°05'0 0.0
2017-Dec-11 12:01N 40°40' W 074°05'1 2.5
2017-Dec-11 11:31N 40°39' W 074°05'4 8.3
2017-Dec-11 11:00N 40°39' W 074°11'3 5.6
2017-Dec-11 10:30N 40°36' W 074°12'0 0.8
2017-Dec-11 09:59N 40°37' W 074°12'1 1.3
2017-Dec-11 09:30N 40°37' W 074°12'0 0.7
2017-Dec-11 09:00N 40°38' W 074°12'2 4.6
2017-Dec-11 08:31N 40°39' W 074°10'2 4.9
2017-Dec-11 08:00N 40°39' W 074°06'3 5.6
2017-Dec-11 07:31N 40°39' W 074°03'0 0.1
2017-Dec-11 07:00N 40°39' W 074°03'0 0.0
2017-Dec-11 06:31N 40°39' W 074°03'0 0.0
2017-Dec-11 06:01N 40°39' W 074°03'0 0.0
2017-Dec-11 05:31N 40°39' W 074°03'0 0.3
2017-Dec-11 05:01N 40°39' W 074°03'2 3.2
2017-Dec-11 04:31N 40°40' W 074°01'2 4.0
2017-Dec-11 04:00N 40°42' W 074°00'2 4.9
2017-Dec-11 03:30N 40°44' W 073°58'3 6.7
2017-Dec-11 03:01N 40°47' W 073°56'2 3.3
2017-Dec-11 02:30N 40°48' W 073°54'0 0.0
2017-Dec-11 02:00N 40°48' W 073°54'0 0.0
2017-Dec-11 01:30N 40°48' W 073°54'0 0.0
2017-Dec-11 01:00N 40°48' W 073°54'0 0.0
2017-Dec-11 00:30N 40°48' W 073°54'0 0.0
2017-Dec-11 00:00N 40°48' W 073°54'0 0.0
2017-Dec-10 23:31N 40°48' W 073°54'0 0.0
2017-Dec-10 23:00N 40°48' W 073°54'0 0.0
2017-Dec-10 22:30N 40°48' W 073°54'0 0.0
2017-Dec-10 22:00N 40°48' W 073°54'0 0.0
2017-Dec-10 21:30N 40°48' W 073°54'0 0.0
2017-Dec-10 21:00N 40°48' W 073°54'0 0.0
2017-Dec-10 20:30N 40°48' W 073°54'0 0.0
2017-Dec-10 20:00N 40°48' W 073°54'0 0.0
2017-Dec-10 19:30N 40°48' W 073°54'0 0.0
2017-Dec-10 19:00N 40°48' W 073°54'0 0.0
2017-Dec-10 18:30N 40°48' W 073°54'0 0.0
2017-Dec-10 18:01N 40°48' W 073°54'0 0.0
2017-Dec-10 17:31N 40°48' W 073°54'0 0.0
2017-Dec-10 17:00N 40°48' W 073°54'0 0.0
2017-Dec-10 16:30N 40°48' W 073°54'0 0.0
2017-Dec-10 16:00N 40°48' W 073°54'0 0.0
2017-Dec-10 15:30N 40°48' W 073°54'0 0.0
2017-Dec-10 15:00N 40°48' W 073°54'0 0.0
2017-Dec-10 14:30N 40°48' W 073°54'0 0.0
2017-Dec-10 14:00N 40°48' W 073°54'0 0.0
2017-Dec-10 13:30N 40°48' W 073°54'0 0.0
2017-Dec-10 13:00N 40°48' W 073°54'0 0.0
2017-Dec-10 12:31N 40°48' W 073°54'0 0.0
2017-Dec-10 12:00N 40°48' W 073°54'0 0.0
2017-Dec-10 11:30N 40°48' W 073°54'0 0.0
2017-Dec-10 11:00N 40°48' W 073°54'0 0.0
2017-Dec-10 10:30N 40°48' W 073°54'0 0.0
2017-Dec-10 10:00N 40°48' W 073°54'0 0.0
2017-Dec-10 09:30N 40°48' W 073°54'0 0.1
2017-Dec-10 09:00N 40°48' W 073°54'0 0.5
2017-Dec-10 08:30N 40°48' W 073°54'2 3.6
2017-Dec-10 08:00N 40°47' W 073°56'3 5.7
2017-Dec-10 07:31N 40°44' W 073°58'2 4.6
2017-Dec-10 07:01N 40°42' W 073°59'3 6.3
2017-Dec-10 06:31N 40°40' W 074°01'3 5.1
2017-Dec-10 06:01N 40°39' W 074°05'2 4.9
2017-Dec-10 05:31N 40°39' W 074°08'1 2.1
2017-Dec-10 05:01N 40°39' W 074°09'1 1.9
2017-Dec-10 04:30N 40°40' W 074°08'1 1.4
2017-Dec-10 04:00N 40°41' W 074°08'2 3.4
2017-Dec-10 03:31N 40°42' W 074°07'0 0.1
2017-Dec-10 03:00N 40°42' W 074°07'0 0.2
2017-Dec-10 02:30N 40°42' W 074°07'1 2.2
2017-Dec-10 02:00N 40°41' W 074°08'3 5.7
2017-Dec-10 01:30N 40°39' W 074°08'3 5.1
2017-Dec-10 01:01N 40°39' W 074°05'0 0.7
2017-Dec-10 00:31N 40°39' W 074°05'3 6.0
2017-Dec-10 00:00N 40°39' W 074°09'3 5.4
2017-Dec-09 23:31N 40°41' W 074°09'0 0.1
2017-Dec-09 22:59N 40°41' W 074°09'0 0.0
2017-Dec-09 22:30N 40°41' W 074°09'0 0.0
2017-Dec-09 22:00N 40°41' W 074°09'0 0.0
2017-Dec-09 21:31N 40°41' W 074°09'0 0.0
2017-Dec-09 21:01N 40°41' W 074°09'0 0.0
2017-Dec-09 20:30N 40°41' W 074°09'0 0.0
2017-Dec-09 20:00N 40°41' W 074°09'1 2.6
2017-Dec-09 19:30N 40°40' W 074°08'0 0.0
2017-Dec-09 19:00N 40°40' W 074°08'0 0.0
2017-Dec-09 18:31N 40°40' W 074°08'1 2.5
2017-Dec-09 18:01N 40°41' W 074°09'0 0.0
2017-Dec-09 17:31N 40°41' W 074°09'0 0.0
2017-Dec-09 17:00N 40°41' W 074°09'0 0.0
2017-Dec-09 16:31N 40°41' W 074°09'0 0.0
2017-Dec-09 16:00N 40°41' W 074°09'0 0.0
2017-Dec-09 15:30N 40°41' W 074°09'0 0.0
2017-Dec-09 15:00N 40°41' W 074°09'0 0.0
2017-Dec-09 14:31N 40°41' W 074°09'2 3.5
2017-Dec-09 14:00N 40°42' W 074°07'0 0.6
2017-Dec-09 13:31N 40°42' W 074°07'0 0.4
2017-Dec-09 13:01N 40°42' W 074°07'0 0.7
2017-Dec-09 12:31N 40°42' W 074°07'3 5.1
2017-Dec-09 12:00N 40°40' W 074°08'3 6.1
2017-Dec-09 11:31N 40°39' W 074°05'5 9.2
2017-Dec-09 11:01N 40°43' W 074°02'4 8.2
2017-Dec-09 10:31N 40°47' W 073°60'1 1.4
2017-Dec-09 10:01N 40°48' W 073°59'0 0.1
2017-Dec-09 09:30N 40°48' W 073°59'0 0.1
2017-Dec-09 09:01N 40°48' W 073°59'0 0.1
2017-Dec-09 08:30N 40°48' W 073°59'0 0.0
2017-Dec-09 08:01N 40°48' W 073°59'0 0.0
2017-Dec-09 07:31N 40°48' W 073°59'0 0.0
2017-Dec-09 07:01N 40°48' W 073°59'0 0.0
2017-Dec-09 06:31N 40°48' W 073°59'0 0.0
2017-Dec-09 06:00N 40°48' W 073°59'0 0.0
2017-Dec-09 05:30N 40°48' W 073°59'0 0.0
2017-Dec-09 05:00N 40°48' W 073°59'0 0.0
2017-Dec-09 04:30N 40°48' W 073°59'0 0.0
2017-Dec-09 04:00N 40°48' W 073°59'0 0.1
2017-Dec-09 03:31N 40°48' W 073°59'0 0.1
2017-Dec-09 03:01N 40°48' W 073°59'0 0.0
2017-Dec-09 02:30N 40°48' W 073°59'0 0.0
2017-Dec-09 02:01N 40°48' W 073°59'2 3.0
2017-Dec-09 01:31N 40°46' W 074°00'4 8.0
2017-Dec-09 01:00N 40°42' W 074°02'4 7.5
2017-Dec-09 00:31N 40°39' W 074°04'0 0.9
2017-Dec-09 00:01N 40°39' W 074°05'0 0.8
2017-Dec-08 23:31N 40°39' W 074°05'3 5.3
2017-Dec-08 23:01N 40°40' W 074°01'1 1.6
2017-Dec-08 22:31N 40°40' W 074°00'0 0.2
2017-Dec-08 22:01N 40°40' W 074°00'0 0.0
2017-Dec-08 21:31N 40°40' W 074°00'0 0.0
2017-Dec-08 21:01N 40°40' W 074°00'0 0.0
2017-Dec-08 20:31N 40°40' W 074°00'0 0.0
2017-Dec-08 20:01N 40°40' W 074°00'0 0.0
2017-Dec-08 19:31N 40°40' W 074°00'0 0.0
2017-Dec-08 19:01N 40°40' W 074°00'0 0.0
2017-Dec-08 18:31N 40°40' W 074°00'0 0.0
2017-Dec-08 18:01N 40°40' W 074°00'0 0.0
2017-Dec-08 17:31N 40°40' W 074°00'0 0.0
2017-Dec-08 17:01N 40°40' W 074°00'0 0.0
2017-Dec-08 16:31N 40°40' W 074°00'0 0.0
2017-Dec-08 16:01N 40°40' W 074°00'0 0.0
2017-Dec-08 15:31N 40°40' W 074°00'0 0.0
2017-Dec-08 15:01N 40°40' W 074°00'0 0.0
2017-Dec-08 14:31N 40°40' W 074°00'0 0.0
2017-Dec-08 14:01N 40°40' W 074°00'0 0.0
2017-Dec-08 13:30N 40°40' W 074°00'0 0.0
2017-Dec-08 13:00N 40°40' W 074°00'0 0.0
2017-Dec-08 12:31N 40°40' W 074°00'0 0.0
2017-Dec-08 12:01N 40°40' W 074°00'0 0.0
2017-Dec-08 11:31N 40°40' W 074°00'0 0.0
2017-Dec-08 11:01N 40°40' W 074°00'0 0.0
2017-Dec-08 10:31N 40°40' W 074°00'0 0.0
2017-Dec-08 10:01N 40°40' W 074°00'0 0.0
2017-Dec-08 09:31N 40°40' W 074°00'0 0.0
2017-Dec-08 09:01N 40°40' W 074°00'0 0.0
2017-Dec-08 08:31N 40°40' W 074°00'0 0.0
2017-Dec-08 08:00N 40°40' W 074°00'0 0.0
2017-Dec-08 07:30N 40°40' W 074°00'0 0.2
2017-Dec-08 07:00N 40°40' W 074°00'1 2.9
2017-Dec-08 06:30N 40°41' W 074°00'1 2.5
2017-Dec-08 06:01N 40°41' W 074°01'2 3.6
2017-Dec-08 05:31N 40°39' W 074°02'0 0.0
2017-Dec-08 05:01N 40°39' W 074°02'0 0.0
2017-Dec-08 04:31N 40°39' W 074°02'0 0.0
2017-Dec-08 04:01N 40°39' W 074°02'0 0.0
2017-Dec-08 03:30N 40°39' W 074°02'0 0.3
2017-Dec-08 03:01N 40°39' W 074°03'4 7.3
2017-Dec-08 02:30N 40°39' W 074°07'2 3.6
2017-Dec-08 02:00N 40°40' W 074°08'0 0.0
2017-Dec-08 01:31N 40°40' W 074°08'0 0.0
2017-Dec-08 01:01N 40°40' W 074°08'0 0.0
2017-Dec-08 00:31N 40°40' W 074°08'1 1.7
2017-Dec-08 00:00N 40°39' W 074°09'3 5.9
2017-Dec-07 23:30N 40°38' W 074°12'2 2.1
2017-Dec-07 22:40N 40°36' W 074°12'0 0.4
2017-Dec-07 22:30N 40°36' W 074°12'3 6.2
2017-Dec-07 22:01N 40°39' W 074°10'3 6.9
2017-Dec-07 21:31N 40°39' W 074°06'2 4.6
2017-Dec-07 21:00N 40°37' W 074°03'0 0.5
2017-Dec-07 20:30N 40°37' W 074°03'2 3.5
2017-Dec-07 20:00N 40°35' W 074°02'3 5.0
2017-Dec-07 19:30N 40°33' W 074°01'2 3.8
2017-Dec-07 19:00N 40°31' W 074°00'2 3.6
2017-Dec-07 18:23N 40°30' W 073°57'3 4.6
2017-Dec-07 17:50N 40°29' W 073°54'2 5.2
2017-Dec-07 17:29N 40°28' W 073°53'3 6.7
2017-Dec-07 17:00N 40°24' W 073°54'28 6.6
2017-Dec-07 12:49N 39°57' W 073°56'2 6.9
2017-Dec-07 12:30N 39°55' W 073°56'3 6.9
2017-Dec-07 12:00N 39°51' W 073°57'4 6.8
2017-Dec-07 11:29N 39°48' W 073°58'3 6.7
2017-Dec-07 10:59N 39°45' W 073°58'3 7.0
2017-Dec-07 10:30N 39°42' W 074°00'4 7.3
2017-Dec-07 10:00N 39°38' W 074°02'4 7.3
2017-Dec-07 09:30N 39°35' W 074°04'4 7.3
2017-Dec-07 09:00N 39°32' W 074°06'4 7.3
2017-Dec-07 08:28N 39°28' W 074°09'56 6.3
2017-Dec-06 23:34N 38°53' W 075°05'1 7.0
2017-Dec-06 23:23N 38°54' W 075°05'3 6.9
2017-Dec-06 23:00N 38°57' W 075°06'4 7.3
2017-Dec-06 22:30N 38°60' W 075°08'4 8.1
2017-Dec-06 22:00N 39°04' W 075°10'4 8.5
2017-Dec-06 21:30N 39°07' W 075°13'4 8.8
2017-Dec-06 21:00N 39°11' W 075°16'  
2017-Dec-04 10:30N 39°54' W 075°12'0 0.0
2017-Dec-04 10:01N 39°54' W 075°12'0 0.0
2017-Dec-04 09:23N 39°54' W 075°12'3 7.6
2017-Dec-04 08:59N 39°54' W 075°08'0 0.1
2017-Dec-04 08:27N 39°54' W 075°08'3 6.1
2017-Dec-04 07:58N 39°53' W 075°12'1 2.0
2017-Dec-04 07:30N 39°53' W 075°11'612.2
2017-Dec-04 06:59N 39°51' W 075°19'2 2.6
2017-Dec-04 06:17N 39°51' W 075°21'2 7.6
2017-Dec-04 06:00N 39°49' W 075°23'4 7.5
2017-Dec-04 05:30N 39°47' W 075°27'4 7.9
2017-Dec-04 05:00N 39°44' W 075°30'1 2.4
2017-Dec-04 04:30N 39°43' W 075°31'0 0.3
2017-Dec-04 04:00N 39°43' W 075°31'0 0.0
2017-Dec-04 03:30N 39°43' W 075°31'0 0.0
2017-Dec-04 03:00N 39°43' W 075°31'0 0.0
2017-Dec-04 02:30N 39°43' W 075°31'0 0.0
2017-Dec-04 02:00N 39°43' W 075°31'0 0.0
2017-Dec-04 01:30N 39°43' W 075°31'0 0.0
2017-Dec-04 01:00N 39°43' W 075°31'0 0.0
2017-Dec-04 00:30N 39°43' W 075°31'0 0.0
2017-Dec-04 00:00N 39°43' W 075°31'0 0.0
2017-Dec-03 23:30N 39°43' W 075°31'0 0.7
2017-Dec-03 23:00N 39°43' W 075°31'0 0.7
2017-Dec-03 22:30N 39°43' W 075°30'3 5.4
2017-Dec-03 21:59N 39°45' W 075°29'4 8.0
2017-Dec-03 21:29N 39°48' W 075°25'914.7
2017-Dec-03 20:54N 39°51' W 075°15'2 5.4
2017-Dec-03 20:28N 39°52' W 075°12'1 2.6
2017-Dec-03 20:01N 39°54' W 075°12'0 0.0
2017-Dec-03 19:26N 39°54' W 075°12'0 0.0
2017-Dec-03 18:58N 39°54' W 075°12'0 0.2
2017-Dec-03 18:29N 39°54' W 075°12'0 0.0
2017-Dec-03 17:59N 39°54' W 075°12'0 0.0
2017-Dec-03 17:29N 39°54' W 075°12'0 0.0
2017-Dec-03 16:59N 39°54' W 075°12'0 0.0
2017-Dec-03 16:23N 39°54' W 075°12'0 0.0
2017-Dec-03 15:56N 39°54' W 075°12'0 0.0
2017-Dec-03 15:29N 39°54' W 075°12'1 1.1
2017-Dec-03 14:56N 39°53' W 075°12'1 1.2
2017-Dec-03 14:28N 39°54' W 075°12'0 0.2
2017-Dec-03 14:00N 39°54' W 075°12'3 4.3
2017-Dec-03 13:24N 39°51' W 075°14'1 1.9
2017-Dec-03 12:56N 39°52' W 075°13'2 3.6
2017-Dec-03 12:26N 39°54' W 075°12'0 0.0
2017-Dec-03 11:59N 39°54' W 075°12'0 0.8
2017-Dec-03 11:27N 39°54' W 075°12'0 0.2
2017-Dec-03 10:58N 39°54' W 075°12'3 5.9
2017-Dec-03 10:31N 39°54' W 075°08'0 0.0
2017-Dec-03 09:55N 39°54' W 075°08'0 0.0
2017-Dec-03 09:30N 39°54' W 075°08'0 0.0
2017-Dec-03 08:52N 39°54' W 075°08'0 0.0
2017-Dec-03 08:30N 39°54' W 075°08'0 0.6
2017-Dec-03 08:00N 39°54' W 075°08'2 4.1
2017-Dec-03 07:26N 39°56' W 075°08'0 0.7
2017-Dec-03 06:58N 39°56' W 075°08'0 0.2
2017-Dec-03 06:28N 39°56' W 075°08'0 0.0
2017-Dec-03 06:00N 39°56' W 075°08'0 0.0
2017-Dec-03 05:29N 39°56' W 075°08'0 0.0
2017-Dec-03 04:58N 39°56' W 075°08'0 0.0
2017-Dec-03 04:27N 39°56' W 075°08'0 0.0
2017-Dec-03 03:57N 39°56' W 075°08'0 0.0
2017-Dec-03 03:30N 39°56' W 075°08'4 7.9
2017-Dec-03 02:59N 39°53' W 075°11'1 2.0
2017-Dec-03 02:29N 39°54' W 075°12'2 4.4
2017-Dec-03 02:00N 39°52' W 075°13'3 5.7
2017-Dec-03 01:27N 39°51' W 075°17'2 4.9
2017-Dec-03 00:59N 39°51' W 075°20'3 6.3
2017-Dec-03 00:30N 39°49' W 075°24'5 9.6
2017-Dec-03 00:00N 39°46' W 075°28'3 5.8
2017-Dec-02 23:30N 39°43' W 075°30'4 7.1
2017-Dec-02 23:00N 39°40' W 075°32'3 6.6
2017-Dec-02 22:30N 39°38' W 075°35'3 6.2
2017-Dec-02 22:00N 39°35' W 075°33'3 5.9
2017-Dec-02 21:30N 39°32' W 075°33'3 6.0
2017-Dec-02 21:00N 39°29' W 075°34'3 5.8
2017-Dec-02 20:30N 39°26' W 075°32'3 5.5
2017-Dec-02 20:00N 39°24' W 075°30'3 5.5
2017-Dec-02 19:30N 39°22' W 075°27'4 6.9
2017-Dec-02 18:57N 39°19' W 075°24'3 5.4
2017-Dec-02 18:25N 39°17' W 075°22'3 5.9
2017-Dec-02 17:59N 39°15' W 075°20'3 6.2
2017-Dec-02 17:27N 39°12' W 075°17'3 6.3
2017-Dec-02 17:00N 39°10' W 075°15'4 6.7
2017-Dec-02 16:27N 39°07' W 075°13'3 6.4
2017-Dec-02 15:55N 39°04' W 075°10'3 6.9
2017-Dec-02 15:30N 39°01' W 075°09'4 6.8
2017-Dec-02 14:54N 38°58' W 075°07'4 7.6
2017-Dec-02 14:25N 38°54' W 075°05'4 7.7
2017-Dec-02 13:56N 38°51' W 075°03'3 7.1
2017-Dec-02 13:28N 38°48' W 075°00'4 6.8
2017-Dec-02 12:57N 38°49' W 074°56'4 8.2
2017-Dec-02 12:25N 38°50' W 074°50'512.3
2017-Dec-02 11:59N 38°54' W 074°47'3 5.1
2017-Dec-02 11:29N 38°57' W 074°45'611.3
2017-Dec-02 10:57N 39°02' W 074°40'2 4.9
2017-Dec-02 10:29N 39°04' W 074°39'27 8.2
2017-Dec-02 07:14N 39°23' W 074°16'2 8.3
2017-Dec-02 06:59N 39°25' W 074°14'4 8.3
2017-Dec-02 06:30N 39°29' W 074°12'511.1
2017-Dec-02 06:00N 39°33' W 074°09'3 5.5
2017-Dec-02 05:30N 39°36' W 074°07'4 8.3
2017-Dec-02 05:00N 39°39' W 074°04'4 8.4
2017-Dec-02 04:29N 39°44' W 074°03'4 8.4
2017-Dec-02 04:00N 39°48' W 074°02'4 8.4
2017-Dec-02 03:28N 39°52' W 074°01'22 8.5
2017-Dec-02 00:52N 40°14' W 073°56'5 8.6
2017-Dec-02 00:19N 40°18' W 073°55'3 8.6
2017-Dec-01 23:56N 40°22' W 073°55'5 8.6
2017-Dec-01 23:23N 40°26' W 073°55'3 7.9
2017-Dec-01 22:59N 40°29' W 073°56'4 7.4
2017-Dec-01 22:29N 40°31' W 074°00'3 6.8
2017-Dec-01 22:00N 40°34' W 074°02'3 7.0
2017-Dec-01 21:30N 40°38' W 074°03'2 4.0
2017-Dec-01 21:00N 40°39' W 074°01'1 1.8
2017-Dec-01 20:30N 40°40' W 074°01'0 0.0
2017-Dec-01 20:01N 40°40' W 074°01'0 0.6
2017-Dec-01 19:30N 40°40' W 074°00'0 0.0
2017-Dec-01 19:00N 40°40' W 074°00'0 0.0
2017-Dec-01 18:30N 40°40' W 074°00'0 0.6
2017-Dec-01 18:00N 40°40' W 074°00'0 0.0
2017-Dec-01 17:30N 40°40' W 074°01'1 1.5
2017-Dec-01 17:00N 40°40' W 074°01'  
Track history (hours):
 
Tides and Currents Weather Stations Pressure Air Temp Water Temp Dewpoint Dewpoint Depression Visibility Wind Speed Wind Dir Waves Ship Positions

Philadelphia

Owner: Vane Line Bunkering, Inc., Philadelphia, PA. More information available from US FCC via Universal Licensing System and Coast Guard Vessel Documentation Center.

Last reported at 2017-Dec-11 17:00 UTC. Time now 2017-Dec-14 10:16 UTC.
Position N 40°40' W 074°05'.

Length 30 m; draft 5.5 m.

Type: Towing. MMSI: 369230000.

Date/timePositionNaut miles runAvg speedWind from/ knotsBaromVisibWave heightAir tempDewpointWater temp
2017-Dec-11 17:00N 40°40' W 074°05'0 0.0
2017-Dec-11 16:31N 40°40' W 074°05'0 0.0
2017-Dec-11 16:01N 40°40' W 074°05'0 0.0
2017-Dec-11 15:30N 40°40' W 074°05'0 0.0
2017-Dec-11 15:01N 40°40' W 074°05'0 0.0
2017-Dec-11 14:31N 40°40' W 074°05'0 0.0
2017-Dec-11 14:01N 40°40' W 074°05'0 0.0
2017-Dec-11 13:31N 40°40' W 074°05'0 0.0
2017-Dec-11 13:01N 40°40' W 074°05'0 0.0
2017-Dec-11 12:31N 40°40' W 074°05'0 0.0
2017-Dec-11 12:01N 40°40' W 074°05'1 2.5
2017-Dec-11 11:31N 40°39' W 074°05'4 8.3
2017-Dec-11 11:00N 40°39' W 074°11'3 5.6
2017-Dec-11 10:30N 40°36' W 074°12'0 0.8
2017-Dec-11 09:59N 40°37' W 074°12'1 1.3
2017-Dec-11 09:30N 40°37' W 074°12'0 0.7
2017-Dec-11 09:00N 40°38' W 074°12'2 4.6
2017-Dec-11 08:31N 40°39' W 074°10'2 4.9
2017-Dec-11 08:00N 40°39' W 074°06'3 5.6
2017-Dec-11 07:31N 40°39' W 074°03'0 0.1
2017-Dec-11 07:00N 40°39' W 074°03'0 0.0
2017-Dec-11 06:31N 40°39' W 074°03'0 0.0
2017-Dec-11 06:01N 40°39' W 074°03'0 0.0
2017-Dec-11 05:31N 40°39' W 074°03'0 0.3
2017-Dec-11 05:01N 40°39' W 074°03'2 3.2
2017-Dec-11 04:31N 40°40' W 074°01'2 4.0
2017-Dec-11 04:00N 40°42' W 074°00'2 4.9
2017-Dec-11 03:30N 40°44' W 073°58'3 6.7
2017-Dec-11 03:01N 40°47' W 073°56'2 3.3
2017-Dec-11 02:30N 40°48' W 073°54'0 0.0
2017-Dec-11 02:00N 40°48' W 073°54'0 0.0
2017-Dec-11 01:30N 40°48' W 073°54'0 0.0
2017-Dec-11 01:00N 40°48' W 073°54'0 0.0
2017-Dec-11 00:30N 40°48' W 073°54'0 0.0
2017-Dec-11 00:00N 40°48' W 073°54'0 0.0
2017-Dec-10 23:31N 40°48' W 073°54'0 0.0
2017-Dec-10 23:00N 40°48' W 073°54'0 0.0
2017-Dec-10 22:30N 40°48' W 073°54'0 0.0
2017-Dec-10 22:00N 40°48' W 073°54'0 0.0
2017-Dec-10 21:30N 40°48' W 073°54'0 0.0
2017-Dec-10 21:00N 40°48' W 073°54'0 0.0
2017-Dec-10 20:30N 40°48' W 073°54'0 0.0
2017-Dec-10 20:00N 40°48' W 073°54'0 0.0
2017-Dec-10 19:30N 40°48' W 073°54'0 0.0
2017-Dec-10 19:00N 40°48' W 073°54'0 0.0
2017-Dec-10 18:30N 40°48' W 073°54'0 0.0
2017-Dec-10 18:01N 40°48' W 073°54'0 0.0
2017-Dec-10 17:31N 40°48' W 073°54'0 0.0
2017-Dec-10 17:00N 40°48' W 073°54'0 0.0
2017-Dec-10 16:30N 40°48' W 073°54'0 0.0
2017-Dec-10 16:00N 40°48' W 073°54'0 0.0
2017-Dec-10 15:30N 40°48' W 073°54'0 0.0
2017-Dec-10 15:00N 40°48' W 073°54'0 0.0
2017-Dec-10 14:30N 40°48' W 073°54'0 0.0
2017-Dec-10 14:00N 40°48' W 073°54'0 0.0
2017-Dec-10 13:30N 40°48' W 073°54'0 0.0
2017-Dec-10 13:00N 40°48' W 073°54'0 0.0
2017-Dec-10 12:31N 40°48' W 073°54'0 0.0
2017-Dec-10 12:00N 40°48' W 073°54'0 0.0
2017-Dec-10 11:30N 40°48' W 073°54'0 0.0
2017-Dec-10 11:00N 40°48' W 073°54'0 0.0
2017-Dec-10 10:30N 40°48' W 073°54'0 0.0
2017-Dec-10 10:00N 40°48' W 073°54'0 0.0
2017-Dec-10 09:30N 40°48' W 073°54'0 0.1
2017-Dec-10 09:00N 40°48' W 073°54'0 0.5
2017-Dec-10 08:30N 40°48' W 073°54'2 3.6
2017-Dec-10 08:00N 40°47' W 073°56'3 5.7
2017-Dec-10 07:31N 40°44' W 073°58'2 4.6
2017-Dec-10 07:01N 40°42' W 073°59'3 6.3
2017-Dec-10 06:31N 40°40' W 074°01'3 5.1
2017-Dec-10 06:01N 40°39' W 074°05'2 4.9
2017-Dec-10 05:31N 40°39' W 074°08'1 2.1
2017-Dec-10 05:01N 40°39' W 074°09'1 1.9
2017-Dec-10 04:30N 40°40' W 074°08'1 1.4
2017-Dec-10 04:00N 40°41' W 074°08'2 3.4
2017-Dec-10 03:31N 40°42' W 074°07'0 0.1
2017-Dec-10 03:00N 40°42' W 074°07'0 0.2
2017-Dec-10 02:30N 40°42' W 074°07'1 2.2
2017-Dec-10 02:00N 40°41' W 074°08'3 5.7
2017-Dec-10 01:30N 40°39' W 074°08'3 5.1
2017-Dec-10 01:01N 40°39' W 074°05'0 0.7
2017-Dec-10 00:31N 40°39' W 074°05'3 6.0
2017-Dec-10 00:00N 40°39' W 074°09'3 5.4
2017-Dec-09 23:31N 40°41' W 074°09'0 0.1
2017-Dec-09 22:59N 40°41' W 074°09'0 0.0
2017-Dec-09 22:30N 40°41' W 074°09'0 0.0
2017-Dec-09 22:00N 40°41' W 074°09'0 0.0
2017-Dec-09 21:31N 40°41' W 074°09'0 0.0
2017-Dec-09 21:01N 40°41' W 074°09'0 0.0
2017-Dec-09 20:30N 40°41' W 074°09'0 0.0
2017-Dec-09 20:00N 40°41' W 074°09'1 2.6
2017-Dec-09 19:30N 40°40' W 074°08'0 0.0
2017-Dec-09 19:00N 40°40' W 074°08'0 0.0
2017-Dec-09 18:31N 40°40' W 074°08'1 2.5
2017-Dec-09 18:01N 40°41' W 074°09'0 0.0
2017-Dec-09 17:31N 40°41' W 074°09'0 0.0
2017-Dec-09 17:00N 40°41' W 074°09'0 0.0
2017-Dec-09 16:31N 40°41' W 074°09'0 0.0
2017-Dec-09 16:00N 40°41' W 074°09'0 0.0
2017-Dec-09 15:30N 40°41' W 074°09'0 0.0
2017-Dec-09 15:00N 40°41' W 074°09'0 0.0
2017-Dec-09 14:31N 40°41' W 074°09'2 3.5
2017-Dec-09 14:00N 40°42' W 074°07'0 0.6
2017-Dec-09 13:31N 40°42' W 074°07'0 0.4
2017-Dec-09 13:01N 40°42' W 074°07'0 0.7
2017-Dec-09 12:31N 40°42' W 074°07'3 5.1
2017-Dec-09 12:00N 40°40' W 074°08'3 6.1
2017-Dec-09 11:31N 40°39' W 074°05'5 9.2
2017-Dec-09 11:01N 40°43' W 074°02'4 8.2
2017-Dec-09 10:31N 40°47' W 073°60'1 1.4
2017-Dec-09 10:01N 40°48' W 073°59'0 0.1
2017-Dec-09 09:30N 40°48' W 073°59'0 0.1
2017-Dec-09 09:01N 40°48' W 073°59'0 0.1
2017-Dec-09 08:30N 40°48' W 073°59'0 0.0
2017-Dec-09 08:01N 40°48' W 073°59'0 0.0
2017-Dec-09 07:31N 40°48' W 073°59'0 0.0
2017-Dec-09 07:01N 40°48' W 073°59'0 0.0
2017-Dec-09 06:31N 40°48' W 073°59'0 0.0
2017-Dec-09 06:00N 40°48' W 073°59'0 0.0
2017-Dec-09 05:30N 40°48' W 073°59'0 0.0
2017-Dec-09 05:00N 40°48' W 073°59'0 0.0
2017-Dec-09 04:30N 40°48' W 073°59'0 0.0
2017-Dec-09 04:00N 40°48' W 073°59'0 0.1
2017-Dec-09 03:31N 40°48' W 073°59'0 0.1
2017-Dec-09 03:01N 40°48' W 073°59'0 0.0
2017-Dec-09 02:30N 40°48' W 073°59'0 0.0
2017-Dec-09 02:01N 40°48' W 073°59'2 3.0
2017-Dec-09 01:31N 40°46' W 074°00'4 8.0
2017-Dec-09 01:00N 40°42' W 074°02'4 7.5
2017-Dec-09 00:31N 40°39' W 074°04'0 0.9
2017-Dec-09 00:01N 40°39' W 074°05'0 0.8
2017-Dec-08 23:31N 40°39' W 074°05'3 5.3
2017-Dec-08 23:01N 40°40' W 074°01'1 1.6
2017-Dec-08 22:31N 40°40' W 074°00'0 0.2
2017-Dec-08 22:01N 40°40' W 074°00'0 0.0
2017-Dec-08 21:31N 40°40' W 074°00'0 0.0
2017-Dec-08 21:01N 40°40' W 074°00'0 0.0
2017-Dec-08 20:31N 40°40' W 074°00'0 0.0
2017-Dec-08 20:01N 40°40' W 074°00'0 0.0
2017-Dec-08 19:31N 40°40' W 074°00'0 0.0
2017-Dec-08 19:01N 40°40' W 074°00'0 0.0
2017-Dec-08 18:31N 40°40' W 074°00'0 0.0
2017-Dec-08 18:01N 40°40' W 074°00'0 0.0
2017-Dec-08 17:31N 40°40' W 074°00'0 0.0
2017-Dec-08 17:01N 40°40' W 074°00'0 0.0
2017-Dec-08 16:31N 40°40' W 074°00'0 0.0
2017-Dec-08 16:01N 40°40' W 074°00'0 0.0
2017-Dec-08 15:31N 40°40' W 074°00'0 0.0
2017-Dec-08 15:01N 40°40' W 074°00'0 0.0
2017-Dec-08 14:31N 40°40' W 074°00'0 0.0
2017-Dec-08 14:01N 40°40' W 074°00'0 0.0
2017-Dec-08 13:30N 40°40' W 074°00'0 0.0
2017-Dec-08 13:00N 40°40' W 074°00'0 0.0
2017-Dec-08 12:31N 40°40' W 074°00'0 0.0
2017-Dec-08 12:01N 40°40' W 074°00'0 0.0
2017-Dec-08 11:31N 40°40' W 074°00'0 0.0
2017-Dec-08 11:01N 40°40' W 074°00'0 0.0
2017-Dec-08 10:31N 40°40' W 074°00'0 0.0
2017-Dec-08 10:01N 40°40' W 074°00'0 0.0
2017-Dec-08 09:31N 40°40' W 074°00'0 0.0
2017-Dec-08 09:01N 40°40' W 074°00'0 0.0
2017-Dec-08 08:31N 40°40' W 074°00'0 0.0
2017-Dec-08 08:00N 40°40' W 074°00'0 0.0
2017-Dec-08 07:30N 40°40' W 074°00'0 0.2
2017-Dec-08 07:00N 40°40' W 074°00'1 2.9
2017-Dec-08 06:30N 40°41' W 074°00'1 2.5
2017-Dec-08 06:01N 40°41' W 074°01'2 3.6
2017-Dec-08 05:31N 40°39' W 074°02'0 0.0
2017-Dec-08 05:01N 40°39' W 074°02'0 0.0
2017-Dec-08 04:31N 40°39' W 074°02'0 0.0
2017-Dec-08 04:01N 40°39' W 074°02'0 0.0
2017-Dec-08 03:30N 40°39' W 074°02'0 0.3
2017-Dec-08 03:01N 40°39' W 074°03'4 7.3
2017-Dec-08 02:30N 40°39' W 074°07'2 3.6
2017-Dec-08 02:00N 40°40' W 074°08'0 0.0
2017-Dec-08 01:31N 40°40' W 074°08'0 0.0
2017-Dec-08 01:01N 40°40' W 074°08'0 0.0
2017-Dec-08 00:31N 40°40' W 074°08'1 1.7
2017-Dec-08 00:00N 40°39' W 074°09'3 5.9
2017-Dec-07 23:30N 40°38' W 074°12'2 2.1
2017-Dec-07 22:40N 40°36' W 074°12'0 0.4
2017-Dec-07 22:30N 40°36' W 074°12'3 6.2
2017-Dec-07 22:01N 40°39' W 074°10'3 6.9
2017-Dec-07 21:31N 40°39' W 074°06'2 4.6
2017-Dec-07 21:00N 40°37' W 074°03'0 0.5
2017-Dec-07 20:30N 40°37' W 074°03'2 3.5
2017-Dec-07 20:00N 40°35' W 074°02'3 5.0
2017-Dec-07 19:30N 40°33' W 074°01'2 3.8
2017-Dec-07 19:00N 40°31' W 074°00'2 3.6
2017-Dec-07 18:23N 40°30' W 073°57'3 4.6
2017-Dec-07 17:50N 40°29' W 073°54'2 5.2
2017-Dec-07 17:29N 40°28' W 073°53'3 6.7
2017-Dec-07 17:00N 40°24' W 073°54'28 6.6
2017-Dec-07 12:49N 39°57' W 073°56'2 6.9
2017-Dec-07 12:30N 39°55' W 073°56'3 6.9
2017-Dec-07 12:00N 39°51' W 073°57'4 6.8
2017-Dec-07 11:29N 39°48' W 073°58'3 6.7
2017-Dec-07 10:59N 39°45' W 073°58'3 7.0
2017-Dec-07 10:30N 39°42' W 074°00'4 7.3
2017-Dec-07 10:00N 39°38' W 074°02'4 7.3
2017-Dec-07 09:30N 39°35' W 074°04'4 7.3
2017-Dec-07 09:00N 39°32' W 074°06'4 7.3
2017-Dec-07 08:28N 39°28' W 074°09'56 6.3
2017-Dec-06 23:34N 38°53' W 075°05'1 7.0
2017-Dec-06 23:23N 38°54' W 075°05'3 6.9
2017-Dec-06 23:00N 38°57' W 075°06'4 7.3
2017-Dec-06 22:30N 38°60' W 075°08'4 8.1
2017-Dec-06 22:00N 39°04' W 075°10'4 8.5
2017-Dec-06 21:30N 39°07' W 075°13'4 8.8
2017-Dec-06 21:00N 39°11' W 075°16'  
2017-Dec-04 10:30N 39°54' W 075°12'0 0.0
2017-Dec-04 10:01N 39°54' W 075°12'0 0.0
2017-Dec-04 09:23N 39°54' W 075°12'3 7.6
2017-Dec-04 08:59N 39°54' W 075°08'0 0.1
2017-Dec-04 08:27N 39°54' W 075°08'3 6.1
2017-Dec-04 07:58N 39°53' W 075°12'1 2.0
2017-Dec-04 07:30N 39°53' W 075°11'612.2
2017-Dec-04 06:59N 39°51' W 075°19'2 2.6
2017-Dec-04 06:17N 39°51' W 075°21'2 7.6
2017-Dec-04 06:00N 39°49' W 075°23'4 7.5
2017-Dec-04 05:30N 39°47' W 075°27'4 7.9
2017-Dec-04 05:00N 39°44' W 075°30'1 2.4
2017-Dec-04 04:30N 39°43' W 075°31'0 0.3
2017-Dec-04 04:00N 39°43' W 075°31'0 0.0
2017-Dec-04 03:30N 39°43' W 075°31'0 0.0
2017-Dec-04 03:00N 39°43' W 075°31'0 0.0
2017-Dec-04 02:30N 39°43' W 075°31'0 0.0
2017-Dec-04 02:00N 39°43' W 075°31'0 0.0
2017-Dec-04 01:30N 39°43' W 075°31'0 0.0
2017-Dec-04 01:00N 39°43' W 075°31'0 0.0
2017-Dec-04 00:30N 39°43' W 075°31'0 0.0
2017-Dec-04 00:00N 39°43' W 075°31'0 0.0
2017-Dec-03 23:30N 39°43' W 075°31'0 0.7
2017-Dec-03 23:00N 39°43' W 075°31'0 0.7
2017-Dec-03 22:30N 39°43' W 075°30'3 5.4
2017-Dec-03 21:59N 39°45' W 075°29'4 8.0
2017-Dec-03 21:29N 39°48' W 075°25'914.7
2017-Dec-03 20:54N 39°51' W 075°15'2 5.4
2017-Dec-03 20:28N 39°52' W 075°12'1 2.6
2017-Dec-03 20:01N 39°54' W 075°12'0 0.0
2017-Dec-03 19:26N 39°54' W 075°12'0 0.0
2017-Dec-03 18:58N 39°54' W 075°12'0 0.2
2017-Dec-03 18:29N 39°54' W 075°12'0 0.0
2017-Dec-03 17:59N 39°54' W 075°12'0 0.0
2017-Dec-03 17:29N 39°54' W 075°12'0 0.0
2017-Dec-03 16:59N 39°54' W 075°12'0 0.0
2017-Dec-03 16:23N 39°54' W 075°12'0 0.0
2017-Dec-03 15:56N 39°54' W 075°12'0 0.0
2017-Dec-03 15:29N 39°54' W 075°12'1 1.1
2017-Dec-03 14:56N 39°53' W 075°12'1 1.2
2017-Dec-03 14:28N 39°54' W 075°12'0 0.2
2017-Dec-03 14:00N 39°54' W 075°12'3 4.3
2017-Dec-03 13:24N 39°51' W 075°14'1 1.9
2017-Dec-03 12:56N 39°52' W 075°13'2 3.6
2017-Dec-03 12:26N 39°54' W 075°12'0 0.0
2017-Dec-03 11:59N 39°54' W 075°12'0 0.8
2017-Dec-03 11:27N 39°54' W 075°12'0 0.2
2017-Dec-03 10:58N 39°54' W 075°12'3 5.9
2017-Dec-03 10:31N 39°54' W 075°08'0 0.0
2017-Dec-03 09:55N 39°54' W 075°08'0 0.0
2017-Dec-03 09:30N 39°54' W 075°08'0 0.0
2017-Dec-03 08:52N 39°54' W 075°08'0 0.0
2017-Dec-03 08:30N 39°54' W 075°08'0 0.6
2017-Dec-03 08:00N 39°54' W 075°08'2 4.1
2017-Dec-03 07:26N 39°56' W 075°08'0 0.7
2017-Dec-03 06:58N 39°56' W 075°08'0 0.2
2017-Dec-03 06:28N 39°56' W 075°08'0 0.0
2017-Dec-03 06:00N 39°56' W 075°08'0 0.0
2017-Dec-03 05:29N 39°56' W 075°08'0 0.0
2017-Dec-03 04:58N 39°56' W 075°08'0 0.0
2017-Dec-03 04:27N 39°56' W 075°08'0 0.0
2017-Dec-03 03:57N 39°56' W 075°08'0 0.0
2017-Dec-03 03:30N 39°56' W 075°08'4 7.9
2017-Dec-03 02:59N 39°53' W 075°11'1 2.0
2017-Dec-03 02:29N 39°54' W 075°12'2 4.4
2017-Dec-03 02:00N 39°52' W 075°13'3 5.7
2017-Dec-03 01:27N 39°51' W 075°17'2 4.9
2017-Dec-03 00:59N 39°51' W 075°20'3 6.3
2017-Dec-03 00:30N 39°49' W 075°24'5 9.6
2017-Dec-03 00:00N 39°46' W 075°28'3 5.8
2017-Dec-02 23:30N 39°43' W 075°30'4 7.1
2017-Dec-02 23:00N 39°40' W 075°32'3 6.6
2017-Dec-02 22:30N 39°38' W 075°35'3 6.2
2017-Dec-02 22:00N 39°35' W 075°33'3 5.9
2017-Dec-02 21:30N 39°32' W 075°33'3 6.0
2017-Dec-02 21:00N 39°29' W 075°34'3 5.8
2017-Dec-02 20:30N 39°26' W 075°32'3 5.5
2017-Dec-02 20:00N 39°24' W 075°30'3 5.5
2017-Dec-02 19:30N 39°22' W 075°27'4 6.9
2017-Dec-02 18:57N 39°19' W 075°24'3 5.4
2017-Dec-02 18:25N 39°17' W 075°22'3 5.9
2017-Dec-02 17:59N 39°15' W 075°20'3 6.2
2017-Dec-02 17:27N 39°12' W 075°17'3 6.3
2017-Dec-02 17:00N 39°10' W 075°15'4 6.7
2017-Dec-02 16:27N 39°07' W 075°13'3 6.4
2017-Dec-02 15:55N 39°04' W 075°10'3 6.9
2017-Dec-02 15:30N 39°01' W 075°09'4 6.8
2017-Dec-02 14:54N 38°58' W 075°07'4 7.6
2017-Dec-02 14:25N 38°54' W 075°05'4 7.7
2017-Dec-02 13:56N 38°51' W 075°03'3 7.1
2017-Dec-02 13:28N 38°48' W 075°00'4 6.8
2017-Dec-02 12:57N 38°49' W 074°56'4 8.2
2017-Dec-02 12:25N 38°50' W 074°50'512.3
2017-Dec-02 11:59N 38°54' W 074°47'3 5.1
2017-Dec-02 11:29N 38°57' W 074°45'611.3
2017-Dec-02 10:57N 39°02' W 074°40'2 4.9
2017-Dec-02 10:29N 39°04' W 074°39'27 8.2
2017-Dec-02 07:14N 39°23' W 074°16'2 8.3
2017-Dec-02 06:59N 39°25' W 074°14'4 8.3
2017-Dec-02 06:30N 39°29' W 074°12'511.1
2017-Dec-02 06:00N 39°33' W 074°09'3 5.5
2017-Dec-02 05:30N 39°36' W 074°07'4 8.3
2017-Dec-02 05:00N 39°39' W 074°04'4 8.4
2017-Dec-02 04:29N 39°44' W 074°03'4 8.4
2017-Dec-02 04:00N 39°48' W 074°02'4 8.4
2017-Dec-02 03:28N 39°52' W 074°01'22 8.5
2017-Dec-02 00:52N 40°14' W 073°56'5 8.6
2017-Dec-02 00:19N 40°18' W 073°55'3 8.6
2017-Dec-01 23:56N 40°22' W 073°55'5 8.6
2017-Dec-01 23:23N 40°26' W 073°55'3 7.9
2017-Dec-01 22:59N 40°29' W 073°56'4 7.4
2017-Dec-01 22:29N 40°31' W 074°00'3 6.8
2017-Dec-01 22:00N 40°34' W 074°02'3 7.0
2017-Dec-01 21:30N 40°38' W 074°03'2 4.0
2017-Dec-01 21:00N 40°39' W 074°01'1 1.8
2017-Dec-01 20:30N 40°40' W 074°01'0 0.0
2017-Dec-01 20:01N 40°40' W 074°01'0 0.6
2017-Dec-01 19:30N 40°40' W 074°00'0 0.0
2017-Dec-01 19:00N 40°40' W 074°00'0 0.0
2017-Dec-01 18:30N 40°40' W 074°00'0 0.6
2017-Dec-01 18:00N 40°40' W 074°00'0 0.0
2017-Dec-01 17:30N 40°40' W 074°01'1 1.5
2017-Dec-01 17:00N 40°40' W 074°01'  

Dump ship's entire track history